SAS41C EGLL-EKCH
Flight info
| Callsign | SAS41C |
|---|---|
| Flight time | 1h 24m |
| Altitude | 37000 |
| Route | BPK Q295 SOMVA DCT MAVAS DCT ROCZO DCT DOSUR P729 TUDLO |
| Aircraft | A320/M-SDE3FGHIRWY/LB1 |
Departure
| Time | 2026-05-04 09:49 |
|---|---|
| Airport | London Heathrow Airport (EGLL) |
Arrival
| Time | 2026-05-04 11:13 |
|---|---|
| Airport | Copenhagen Kastrup Airport (EKCH) |
| Time | Latitude | Longitude | Altitude | Speed | Heading |
|---|---|---|---|---|---|
| 2026-05-04 09:28 | 51.46829 | -0.45112 | 86 ft | 0 kts | 360° |
| 2026-05-04 09:42 | 51.46751 | -0.45004 | 86 ft | 0 kts | 269° |
| 2026-05-04 09:44 | 51.46747 | -0.45038 | 86 ft | 5 kts | 245° |
| 2026-05-04 09:46 | 51.46666 | -0.44123 | 86 ft | 13 kts | 90° |
| 2026-05-04 09:46 | 51.46643 | -0.44050 | 87 ft | 6 kts | 175° |
| 2026-05-04 09:46 | 51.46602 | -0.44053 | 86 ft | 6 kts | 182° |
| 2026-05-04 09:47 | 51.46544 | -0.44052 | 86 ft | 12 kts | 179° |
| 2026-05-04 09:47 | 51.46493 | -0.44083 | 87 ft | 7 kts | 251° |
| 2026-05-04 09:49 | 51.47182 | -0.52927 | 1859 ft | 189 kts | 301° |
| 2026-05-04 09:49 | 51.47877 | -0.54895 | 2000 ft | 221 kts | 299° |
| 2026-05-04 09:49 | 51.48632 | -0.57227 | 2345 ft | 248 kts | 298° |
| 2026-05-04 09:51 | 51.56831 | -0.63564 | 6019 ft | 276 kts | 46° |
| 2026-05-04 09:51 | 51.57961 | -0.61110 | 6761 ft | 278 kts | 57° |
| 2026-05-04 09:51 | 51.59062 | -0.58539 | 7563 ft | 282 kts | 54° |
| 2026-05-04 09:51 | 51.60249 | -0.55995 | 8344 ft | 287 kts | 53° |
| 2026-05-04 09:52 | 51.61481 | -0.53433 | 9144 ft | 291 kts | 52° |
| 2026-05-04 09:52 | 51.62629 | -0.50721 | 9913 ft | 295 kts | 63° |
| 2026-05-04 09:52 | 51.63589 | -0.47739 | 10412 ft | 309 kts | 64° |
| 2026-05-04 09:52 | 51.64595 | -0.44530 | 10628 ft | 333 kts | 64° |
| 2026-05-04 09:53 | 51.65647 | -0.41130 | 11160 ft | 344 kts | 64° |
| 2026-05-04 09:53 | 51.66718 | -0.37648 | 11847 ft | 348 kts | 64° |
| 2026-05-04 09:53 | 51.67796 | -0.34131 | 12559 ft | 352 kts | 64° |
| 2026-05-04 09:53 | 51.68886 | -0.30575 | 13264 ft | 356 kts | 64° |
| 2026-05-04 09:54 | 51.69988 | -0.26978 | 13946 ft | 360 kts | 64° |
| 2026-05-04 09:54 | 51.71103 | -0.23341 | 14566 ft | 363 kts | 65° |
| 2026-05-04 09:54 | 51.72224 | -0.19674 | 15158 ft | 366 kts | 65° |
| 2026-05-04 09:54 | 51.73354 | -0.15975 | 15786 ft | 369 kts | 65° |
| 2026-05-04 09:55 | 51.74449 | -0.12213 | 16400 ft | 372 kts | 70° |
| 2026-05-04 09:55 | 51.75172 | -0.08202 | 16998 ft | 373 kts | 81° |
| 2026-05-04 09:55 | 51.75538 | -0.04043 | 17588 ft | 376 kts | 84° |
| 2026-05-04 09:55 | 51.75880 | 0.00155 | 18142 ft | 379 kts | 84° |
| 2026-05-04 09:56 | 51.76229 | 0.04400 | 18651 ft | 383 kts | 84° |
| 2026-05-04 09:56 | 51.76578 | 0.08624 | 19132 ft | 387 kts | 84° |
| 2026-05-04 09:56 | 51.76935 | 0.12950 | 19625 ft | 390 kts | 84° |
| 2026-05-04 09:56 | 51.77292 | 0.17314 | 20108 ft | 394 kts | 84° |
| 2026-05-04 09:57 | 51.77651 | 0.21721 | 20585 ft | 397 kts | 84° |
| 2026-05-04 09:57 | 51.78014 | 0.26159 | 21052 ft | 400 kts | 84° |
| 2026-05-04 09:57 | 51.78378 | 0.30634 | 21498 ft | 404 kts | 84° |
| 2026-05-04 09:57 | 51.78744 | 0.35150 | 21967 ft | 407 kts | 84° |
| 2026-05-04 09:58 | 51.79110 | 0.39695 | 22417 ft | 410 kts | 84° |
| 2026-05-04 09:58 | 51.79473 | 0.44283 | 22864 ft | 413 kts | 84° |
| 2026-05-04 09:58 | 51.79837 | 0.48911 | 23290 ft | 417 kts | 84° |
| 2026-05-04 10:00 | 51.85305 | 0.81303 | 25573 ft | 445 kts | 68° |
| 2026-05-04 10:00 | 51.86502 | 0.85933 | 25917 ft | 447 kts | 69° |
| 2026-05-04 10:02 | 51.95023 | 1.19233 | 28097 ft | 468 kts | 70° |
| 2026-05-04 10:04 | 52.03788 | 1.54014 | 30090 ft | 485 kts | 71° |
| 2026-05-04 10:04 | 52.05063 | 1.59110 | 30259 ft | 489 kts | 71° |
| 2026-05-04 10:04 | 52.06343 | 1.64242 | 30501 ft | 490 kts | 71° |
| 2026-05-04 10:04 | 52.07622 | 1.69384 | 30764 ft | 491 kts | 71° |
| 2026-05-04 10:05 | 52.08901 | 1.74537 | 31085 ft | 491 kts | 71° |
| 2026-05-04 10:05 | 52.10170 | 1.79663 | 31479 ft | 488 kts | 70° |
| 2026-05-04 10:05 | 52.11430 | 1.84770 | 31900 ft | 485 kts | 70° |
| 2026-05-04 10:05 | 52.12678 | 1.89840 | 32327 ft | 481 kts | 70° |
| 2026-05-04 10:06 | 52.13918 | 1.94880 | 32744 ft | 478 kts | 70° |
| 2026-05-04 10:06 | 52.14755 | 1.98278 | 32999 ft | 477 kts | 70° |
| 2026-05-04 10:06 | 52.16386 | 2.04919 | 33399 ft | 477 kts | 70° |
| 2026-05-04 10:08 | 52.23249 | 2.33144 | 35117 ft | 470 kts | 70° |
| 2026-05-04 10:08 | 52.24443 | 2.38105 | 35368 ft | 469 kts | 70° |
| 2026-05-04 10:08 | 52.25633 | 2.43059 | 35611 ft | 468 kts | 70° |
| 2026-05-04 10:08 | 52.26817 | 2.47997 | 35892 ft | 467 kts | 70° |
| 2026-05-04 10:09 | 52.27996 | 2.52930 | 36106 ft | 466 kts | 70° |
| 2026-05-04 10:09 | 52.29172 | 2.57865 | 36306 ft | 466 kts | 70° |
| 2026-05-04 10:09 | 52.30347 | 2.62801 | 36517 ft | 466 kts | 70° |
| 2026-05-04 10:09 | 52.31342 | 2.67822 | 36715 ft | 464 kts | 75° |
| 2026-05-04 10:10 | 52.32238 | 2.72892 | 36914 ft | 464 kts | 75° |
| 2026-05-04 10:10 | 52.33132 | 2.77962 | 37011 ft | 464 kts | 75° |
| 2026-05-04 10:10 | 52.34901 | 2.88093 | 37024 ft | 463 kts | 75° |
| 2026-05-04 10:11 | 52.36668 | 2.98213 | 37006 ft | 463 kts | 75° |
| 2026-05-04 10:11 | 52.38439 | 3.08408 | 37019 ft | 468 kts | 75° |
| 2026-05-04 10:12 | 52.40683 | 3.18395 | 37013 ft | 470 kts | 62° |
| 2026-05-04 10:12 | 52.44227 | 3.27385 | 37014 ft | 470 kts | 56° |
| 2026-05-04 10:13 | 52.47848 | 3.36316 | 37032 ft | 470 kts | 57° |
| 2026-05-04 10:13 | 52.51449 | 3.45273 | 37037 ft | 469 kts | 57° |
| 2026-05-04 10:14 | 52.55031 | 3.54231 | 37022 ft | 469 kts | 57° |
| 2026-05-04 10:16 | 52.69177 | 3.89787 | 37027 ft | 471 kts | 57° |
| 2026-05-04 10:16 | 52.72748 | 3.98836 | 37041 ft | 471 kts | 57° |
| 2026-05-04 10:17 | 52.76311 | 4.07887 | 37023 ft | 470 kts | 57° |
| 2026-05-04 10:19 | 52.90484 | 4.44288 | 37021 ft | 472 kts | 57° |
| 2026-05-04 10:19 | 52.94019 | 4.53437 | 37031 ft | 471 kts | 57° |
| 2026-05-04 10:20 | 52.97541 | 4.62594 | 37033 ft | 471 kts | 57° |
| 2026-05-04 10:20 | 53.01047 | 4.71764 | 37046 ft | 470 kts | 58° |
| 2026-05-04 10:21 | 53.04549 | 4.80942 | 37040 ft | 470 kts | 57° |
| 2026-05-04 10:21 | 53.08051 | 4.90111 | 37033 ft | 469 kts | 58° |
| 2026-05-04 10:22 | 53.13265 | 5.03907 | 37030 ft | 469 kts | 58° |
| 2026-05-04 10:23 | 53.16735 | 5.13121 | 37035 ft | 470 kts | 58° |
| 2026-05-04 10:25 | 53.30601 | 5.50257 | 37016 ft | 472 kts | 58° |
| 2026-05-04 10:25 | 53.34067 | 5.59601 | 37030 ft | 473 kts | 58° |
| 2026-05-04 10:26 | 53.37526 | 5.68959 | 37021 ft | 473 kts | 58° |
| 2026-05-04 10:26 | 53.40977 | 5.78358 | 37021 ft | 474 kts | 58° |
| 2026-05-04 10:27 | 53.44427 | 5.87796 | 37026 ft | 475 kts | 58° |
| 2026-05-04 10:27 | 53.47851 | 5.97197 | 37033 ft | 476 kts | 58° |
| 2026-05-04 10:28 | 53.51295 | 6.06687 | 37033 ft | 476 kts | 58° |
| 2026-05-04 10:28 | 53.54735 | 6.16181 | 37035 ft | 476 kts | 58° |
| 2026-05-04 10:29 | 53.58167 | 6.25680 | 37035 ft | 476 kts | 58° |
| 2026-05-04 10:29 | 53.61587 | 6.35214 | 37029 ft | 476 kts | 58° |
| 2026-05-04 10:30 | 53.65004 | 6.44776 | 37024 ft | 476 kts | 58° |
| 2026-05-04 10:30 | 53.68409 | 6.54353 | 37028 ft | 476 kts | 58° |
| 2026-05-04 10:31 | 53.71813 | 6.63947 | 37033 ft | 477 kts | 58° |
| 2026-05-04 10:32 | 53.83685 | 6.97712 | 37036 ft | 478 kts | 59° |
| 2026-05-04 10:33 | 53.87074 | 7.07410 | 37041 ft | 479 kts | 59° |
| 2026-05-04 10:33 | 53.90424 | 7.17069 | 37042 ft | 479 kts | 59° |
| 2026-05-04 10:34 | 53.93799 | 7.26832 | 37048 ft | 479 kts | 59° |
| 2026-05-04 10:34 | 53.97164 | 7.36590 | 37047 ft | 479 kts | 59° |
| 2026-05-04 10:35 | 54.00524 | 7.46357 | 37041 ft | 479 kts | 59° |
| 2026-05-04 10:35 | 54.03875 | 7.56138 | 37054 ft | 479 kts | 59° |
| 2026-05-04 10:36 | 54.07211 | 7.65954 | 37051 ft | 479 kts | 59° |
| 2026-05-04 10:36 | 54.08873 | 7.70869 | 36870 ft | 478 kts | 59° |
| 2026-05-04 10:36 | 54.10537 | 7.75790 | 36220 ft | 479 kts | 59° |
| 2026-05-04 10:37 | 54.12200 | 7.80707 | 35531 ft | 480 kts | 59° |
| 2026-05-04 10:37 | 54.13863 | 7.85627 | 34967 ft | 478 kts | 59° |
| 2026-05-04 10:37 | 54.15584 | 7.90445 | 34487 ft | 474 kts | 53° |
| 2026-05-04 10:37 | 54.17636 | 7.94795 | 34011 ft | 469 kts | 45° |
| 2026-05-04 10:39 | 54.31062 | 8.18794 | 30475 ft | 463 kts | 42° |
| 2026-05-04 10:39 | 54.33282 | 8.22790 | 29891 ft | 463 kts | 42° |
| 2026-05-04 10:39 | 54.35492 | 8.26783 | 29333 ft | 460 kts | 42° |
| 2026-05-04 10:40 | 54.37686 | 8.30749 | 28843 ft | 456 kts | 43° |
| 2026-05-04 10:40 | 54.39858 | 8.34676 | 28368 ft | 452 kts | 43° |
| 2026-05-04 10:40 | 54.42009 | 8.38568 | 27899 ft | 447 kts | 43° |
| 2026-05-04 10:40 | 54.44139 | 8.42427 | 27446 ft | 443 kts | 43° |
| 2026-05-04 10:41 | 54.46244 | 8.46251 | 27057 ft | 438 kts | 44° |
| 2026-05-04 10:41 | 54.48311 | 8.50018 | 26764 ft | 429 kts | 44° |
| 2026-05-04 10:41 | 54.50348 | 8.53731 | 26383 ft | 424 kts | 44° |
| 2026-05-04 10:41 | 54.52334 | 8.57355 | 26046 ft | 420 kts | 44° |
| 2026-05-04 10:42 | 54.54334 | 8.61004 | 26000 ft | 419 kts | 44° |
| 2026-05-04 10:42 | 54.56345 | 8.64677 | 26004 ft | 424 kts | 44° |
| 2026-05-04 10:42 | 54.58372 | 8.68392 | 26006 ft | 426 kts | 44° |
| 2026-05-04 10:42 | 54.60401 | 8.72120 | 26005 ft | 427 kts | 44° |
| 2026-05-04 10:43 | 54.62432 | 8.75859 | 26002 ft | 427 kts | 44° |
| 2026-05-04 10:44 | 54.76520 | 9.01944 | 25991 ft | 420 kts | 44° |
| 2026-05-04 10:45 | 54.78513 | 9.05648 | 25994 ft | 420 kts | 44° |
| 2026-05-04 10:45 | 54.80503 | 9.09357 | 25991 ft | 420 kts | 44° |
| 2026-05-04 10:45 | 54.82487 | 9.13077 | 25994 ft | 420 kts | 44° |
| 2026-05-04 10:45 | 54.84474 | 9.16804 | 25979 ft | 420 kts | 44° |
| 2026-05-04 10:46 | 54.86456 | 9.20530 | 25979 ft | 420 kts | 45° |
| 2026-05-04 10:46 | 54.88416 | 9.24296 | 25979 ft | 420 kts | 45° |
| 2026-05-04 10:46 | 54.90354 | 9.28103 | 25969 ft | 421 kts | 46° |
| 2026-05-04 10:46 | 54.92282 | 9.31939 | 25986 ft | 422 kts | 46° |
| 2026-05-04 10:47 | 54.94206 | 9.35784 | 25977 ft | 421 kts | 46° |
| 2026-05-04 10:47 | 54.96133 | 9.39629 | 25978 ft | 421 kts | 46° |
| 2026-05-04 10:47 | 54.98060 | 9.43461 | 25976 ft | 421 kts | 46° |
| 2026-05-04 10:47 | 54.99991 | 9.47295 | 25980 ft | 421 kts | 46° |
| 2026-05-04 10:49 | 55.12019 | 9.75950 | 25978 ft | 425 kts | 72° |
| 2026-05-04 10:49 | 55.12899 | 9.80876 | 25974 ft | 425 kts | 73° |
| 2026-05-04 10:50 | 55.13776 | 9.85805 | 25974 ft | 424 kts | 72° |
| 2026-05-04 10:51 | 55.19878 | 10.20206 | 25973 ft | 426 kts | 73° |
| 2026-05-04 10:52 | 55.20742 | 10.25152 | 25966 ft | 426 kts | 73° |
| 2026-05-04 10:52 | 55.21609 | 10.30131 | 25973 ft | 426 kts | 73° |
| 2026-05-04 10:52 | 55.22382 | 10.34577 | 25979 ft | 426 kts | 73° |
| 2026-05-04 10:54 | 55.28259 | 10.68676 | 23243 ft | 408 kts | 74° |
| 2026-05-04 10:54 | 55.29074 | 10.73418 | 22774 ft | 405 kts | 74° |
| 2026-05-04 10:56 | 55.34566 | 11.05772 | 19856 ft | 386 kts | 74° |
| 2026-05-04 10:56 | 55.35304 | 11.10235 | 19459 ft | 384 kts | 74° |
| 2026-05-04 10:56 | 55.36055 | 11.14783 | 19058 ft | 381 kts | 73° |
| 2026-05-04 10:57 | 55.36783 | 11.19189 | 18672 ft | 380 kts | 73° |
| 2026-05-04 10:57 | 55.37516 | 11.23634 | 18303 ft | 378 kts | 73° |
| 2026-05-04 10:57 | 55.38243 | 11.28056 | 17898 ft | 375 kts | 73° |
| 2026-05-04 10:57 | 55.38964 | 11.32462 | 17504 ft | 373 kts | 73° |
| 2026-05-04 10:58 | 55.39678 | 11.36831 | 17124 ft | 371 kts | 73° |
| 2026-05-04 10:58 | 55.40385 | 11.41171 | 16751 ft | 368 kts | 73° |
| 2026-05-04 10:58 | 55.41086 | 11.45486 | 16388 ft | 366 kts | 74° |
| 2026-05-04 10:58 | 55.41778 | 11.49779 | 16040 ft | 364 kts | 74° |
| 2026-05-04 10:59 | 55.42467 | 11.54056 | 15753 ft | 359 kts | 73° |
| 2026-05-04 10:59 | 55.42926 | 11.56894 | 15645 ft | 354 kts | 73° |
| 2026-05-04 10:59 | 55.43770 | 11.60854 | 15395 ft | 348 kts | 61° |
| 2026-05-04 10:59 | 55.45054 | 11.64422 | 15085 ft | 343 kts | 48° |
| 2026-05-04 11:00 | 55.46682 | 11.67435 | 14778 ft | 337 kts | 37° |
| 2026-05-04 11:01 | 55.58723 | 11.86311 | 12563 ft | 324 kts | 38° |
| 2026-05-04 11:02 | 55.60396 | 11.88959 | 12224 ft | 322 kts | 38° |
| 2026-05-04 11:02 | 55.62062 | 11.91593 | 11894 ft | 320 kts | 38° |
| 2026-05-04 11:05 | 55.71940 | 12.36883 | 7023 ft | 300 kts | 96° |
| 2026-05-04 11:06 | 55.71707 | 12.40559 | 6657 ft | 298 kts | 96° |
| 2026-05-04 11:06 | 55.71478 | 12.44212 | 6301 ft | 296 kts | 96° |
| 2026-05-04 11:06 | 55.71277 | 12.47819 | 5923 ft | 294 kts | 90° |
| 2026-05-04 11:06 | 55.71450 | 12.51347 | 5548 ft | 290 kts | 76° |
| 2026-05-04 11:08 | 55.75377 | 12.72801 | 3520 ft | 248 kts | 75° |
| 2026-05-04 11:10 | 55.69519 | 12.77594 | 1844 ft | 176 kts | 226° |
| 2026-05-04 11:12 | 55.64185 | 12.69309 | 516 ft | 132 kts | 227° |
| 2026-05-04 11:12 | 55.63487 | 12.68228 | 313 ft | 134 kts | 227° |
| 2026-05-04 11:12 | 55.62799 | 12.67152 | 134 ft | 131 kts | 227° |
| 2026-05-04 11:12 | 55.62121 | 12.66101 | 28 ft | 122 kts | 225° |
| 2026-05-04 11:13 | 55.61562 | 12.65236 | 23 ft | 86 kts | 221° |
| 2026-05-04 11:13 | 55.61239 | 12.64737 | 25 ft | 42 kts | 221° |
| 2026-05-04 11:13 | 55.61031 | 12.64417 | 24 ft | 37 kts | 221° |
| 2026-05-04 11:13 | 55.60851 | 12.64139 | 27 ft | 31 kts | 221° |
| 2026-05-04 11:14 | 55.60730 | 12.63951 | 28 ft | 17 kts | 223° |
| 2026-05-04 11:14 | 55.60695 | 12.63804 | 25 ft | 14 kts | 282° |
| 2026-05-04 11:14 | 55.60751 | 12.63674 | 24 ft | 11 kts | 311° |
| 2026-05-04 11:16 | 55.61403 | 12.64251 | 24 ft | 26 kts | 33° |
| 2026-05-04 11:16 | 55.61557 | 12.64428 | 24 ft | 28 kts | 34° |
| 2026-05-04 11:16 | 55.61712 | 12.64568 | 24 ft | 22 kts | 2° |
| 2026-05-04 11:17 | 55.61863 | 12.64518 | 25 ft | 23 kts | 351° |
| 2026-05-04 11:17 | 55.62025 | 12.64465 | 25 ft | 24 kts | 350° |
| 2026-05-04 11:19 | 55.62643 | 12.64101 | 24 ft | 6 kts | 334° |
| 2026-05-04 11:19 | 55.62668 | 12.64126 | 24 ft | 4 kts | 33° |
| 2026-05-04 11:19 | 55.62687 | 12.64148 | 24 ft | 3 kts | 33° |
| 2026-05-04 11:19 | 55.62700 | 12.64164 | 24 ft | 2 kts | 33° |
| 2026-05-04 11:20 | 55.62702 | 12.64166 | 24 ft | 0 kts | 33° |
| 2026-05-04 11:20 | 55.62703 | 12.64166 | 24 ft | 0 kts | 33° |